Wichita Mid Continent Airport
KICT : now visible

Airfield :











YOU CAN JOIN US ON...

 
LOGIN :

Register | Disclaimer

   EN    FR    IT 

 









Legend :    VFR   Marginal VFR   IFR   Intensive IFR   Very Intensive IFR
Visi :
Ceiling :
>= 8 km
>= 3000ft
5 to 8 km
1000 to 3000 ft
1500m to 5 km
500 to 1000 ft
800 to 1500m
200 to 500 ft
< 800m
< 200 ft
Symbols :   Thunderstorms  Fog  Heavy snow  Heavy precipitations  Wind > 20 kt






- Airport Elevation : 1333 ft
- IATA code : ICT


KICT - Wichita Mid Continent

CURRENT METAR :
  • 241153Z 33015KT 10SM OVC014 01/M02 A3003 RMK AO2 SLP180 60000 70016 T00061022 10006 20000 53003

EXPIRED METARs :
  • 241129Z 33012KT 10SM OVC014 01/M02 A3003 RMK AO2 T00061022
  • 241053Z 33015KT 10SM OVC015 01/M03 A3003 RMK AO2 SLP177 T00061028
  • 240953Z 33017KT 10SM OVC015 00/M03 A3003 RMK AO2 PK WND 33027/0859 SLP177 T00001028
  • 240930Z 33017G25KT 10SM OVC014 00/M03 A3003 RMK AO2 PK WND 33027/0859 T00001028
  • 240917Z 33016G25KT 10SM OVC015 00/M03 A3003 RMK AO2 PK WND 33027/0859 T00001028

TAF KICT
Valid from the 24 at 12:00 until the 25 at 12:00 UTC


241138Z 2412/2512 33013KT P6SM OVC015
FM241800 33013KT P6SM OVC025
FM242300 34009KT P6SM BKN035
FM250100 01004KT P6SM SKC



MET'MAP, your aeronautical weather chart ! - Copyright ORBIFLY December 2007 - Disclaimer

ORBIFLY MET'MAP TEAM :

Programming & Development : Alexandra Zaïnal
Concept & original design : Baudouin d'Aumeries
Assistance for programming : Marc-Olivier Méhu
Technical & hardware support : Manuel Goepfert

Contact : metmap@orbifly.com




SOURCES & CREDITS :

   NOAA       Earth
Advisory